| time (UTC) | temp C | wind direction | speed KPH | gust KPH | rain 1hr cm | rain 24hr cm | rain mn cm | humidity % | barometer mb |
| 20260507134959 | 20 | 41 | 6.4 | 12.9 | 0.00 | 0.00 | 0.00 | 62 | 1013.6 |
| 20260507133958 | 19 | 34 | 4.8 | 14.5 | 0.00 | 0.00 | 0.00 | 59 | 1013.7 |
| 20260507132958 | 20 | 19 | 6.4 | 12.9 | 0.00 | 0.00 | 0.00 | 62 | 1013.6 |
| 20260507132000 | 20 | 30 | 6.4 | 14.5 | 0.00 | 0.00 | 0.00 | 57 | 1013.7 |
| 20260507130958 | 21 | 30 | 3.2 | 12.9 | 0.00 | 0.00 | 0.00 | 58 | 1013.7 |
| 20260507130004 | 21 | 346 | 3.2 | 14.5 | 0.00 | 0.00 | 0.00 | 58 | 1013.5 |
| 20260507124958 | 20 | 44 | 6.4 | 16.1 | 0.00 | 0.00 | 0.00 | 59 | 1013.7 |
| 20260507124001 | 20 | 36 | 4.8 | 19.3 | 0.00 | 0.00 | 0.00 | 56 | 1013.5 |
| 20260507122958 | 21 | 316 | 3.2 | 9.7 | 0.00 | 0.00 | 0.00 | 58 | 1013.7 |
| 20260507122001 | 21 | 36 | 3.2 | 8.0 | 0.00 | 0.00 | 0.00 | 57 | 1013.7 |
| 20260507120003 | 20 | 20 | 6.4 | 12.9 | 0.00 | 0.00 | 0.00 | 53 | 1013.8 |
| 20260507114958 | 21 | 22 | 3.2 | 9.7 | 0.00 | 0.00 | 0.00 | 52 | 1013.8 |
| 20260507114000 | 20 | 279 | 4.8 | 14.5 | 0.00 | 0.00 | 0.00 | 56 | 1013.8 |
| 20260507112958 | 20 | 30 | 6.4 | 16.1 | 0.00 | 0.00 | 0.00 | 57 | 1013.8 |
| 20260507112000 | 20 | 40 | 4.8 | 14.5 | 0.00 | 0.00 | 0.00 | 58 | 1013.9 |
| 20260507110958 | 20 | 36 | 3.2 | 9.7 | 0.00 | 0.00 | 0.00 | 55 | 1013.9 |
| 20260507110004 | 20 | 15 | 3.2 | 14.5 | 0.00 | 0.00 | 0.00 | 57 | 1014.0 |
| 20260507104958 | 20 | 236 | 3.2 | 9.7 | 0.00 | 0.00 | 0.00 | 60 | 1014.1 |
| 20260507102958 | 21 | 71 | 3.2 | 8.0 | 0.00 | 0.00 | 0.00 | 55 | 1014.0 |
| 20260507100958 | 21 | 36 | 4.8 | 9.7 | 0.00 | 0.00 | 0.00 | 54 | 1014.0 |
| 20260507094000 | 21 | 309 | 1.6 | 6.4 | 0.00 | 0.00 | 0.00 | 56 | 1014.0 |
| 20260507092958 | 20 | 68 | 1.6 | 4.8 | 0.00 | 0.00 | 0.00 | 58 | 1014.0 |
| 20260507092002 | 20 | 80 | 1.6 | 6.4 | 0.00 | 0.00 | 0.00 | 57 | 1014.0 |
| 20260507090958 | 21 | 190 | 1.6 | 4.8 | 0.00 | 0.00 | 0.00 | 58 | 1013.9 |
| 20260507090004 | 20 | 82 | 1.6 | 4.8 | 0.00 | 0.00 | 0.00 | 60 | 1014.0 |
| 20260507084958 | 19 | 44 | 1.6 | 6.4 | 0.00 | 0.00 | 0.00 | 61 | 1014.0 |
| 20260507084000 | 19 | 52 | 1.6 | 8.0 | 0.00 | 0.00 | 0.00 | 65 | 1014.0 |
| 20260507082958 | 19 | 86 | 1.6 | 6.4 | 0.00 | 0.00 | 0.00 | 67 | 1013.9 |
| 20260507074958 | 19 | 177 | 1.6 | 4.8 | 0.00 | 0.00 | 0.00 | 60 | 1013.3 |
| 20260507074000 | 18 | 355 | 1.6 | 4.8 | 0.00 | 0.00 | 0.00 | 63 | 1013.4 |
| 20260507072958 | 18 | 300 | 0.0 | 4.8 | 0.00 | 0.00 | 0.00 | 65 | 1013.4 |
| 20260507072000 | 18 | 71 | 0.0 | 3.2 | 0.00 | 0.00 | 0.00 | 67 | 1013.3 |
| 20260507070958 | 18 | 71 | 1.6 | 4.8 | 0.00 | 0.00 | 0.00 | 69 | 1013.4 |
| 20260507070007 | 17 | 144 | 0.0 | 3.2 | 0.00 | 0.00 | 0.00 | 71 | 1013.6 |
| 20260507064958 | 17 | 144 | 0.0 | 1.6 | 0.00 | 0.00 | 0.00 | 73 | 1013.5 |
| 20260507064001 | 17 | 144 | 0.0 | 1.6 | 0.00 | 0.00 | 0.00 | 75 | 1013.5 |
| 20260507062958 | 16 | 144 | 1.6 | 4.8 | 0.00 | 0.00 | 0.00 | 78 | 1013.5 |
| 20260507062000 | 16 | 144 | 1.6 | 4.8 | 0.00 | 0.00 | 0.00 | 81 | 1013.5 |
| 20260507060958 | 16 | 144 | 0.0 | 1.6 | 0.00 | 0.00 | 0.00 | 82 | 1013.4 |
| 20260507054957 | 15 | 144 | 1.6 | 6.4 | 0.00 | 0.03 | 0.00 | 84 | 1013.3 |
| 20260507054000 | 15 | 144 | 0.0 | 1.6 | 0.00 | 0.03 | 0.00 | 85 | 1013.3 |
| 20260507052957 | 15 | 144 | 0.0 | 3.2 | 0.00 | 0.03 | 0.00 | 86 | 1013.0 |
| 20260507051959 | 15 | 144 | 0.0 | 1.6 | 0.00 | 0.03 | 0.00 | 86 | 1013.1 |
| 20260507050957 | 15 | 144 | 0.0 | 0.0 | 0.00 | 0.03 | 0.00 | 86 | 1013.0 |
| 20260507050002 | 15 | 144 | 0.0 | 0.0 | 0.00 | 0.03 | 0.00 | 86 | 1013.0 |
| 20260507042957 | 15 | 144 | 1.6 | 4.8 | 0.00 | 0.13 | 0.00 | 86 | 1012.5 |
| 20260507040957 | 15 | 144 | 1.6 | 4.8 | 0.00 | 0.13 | 0.00 | 86 | 1012.4 |
| 20260507034957 | 15 | 144 | 1.6 | 3.2 | 0.00 | 0.13 | 0.00 | 86 | 1012.2 |
| 20260507033959 | 15 | 144 | 0.0 | 3.2 | 0.00 | 0.13 | 0.00 | 86 | 1012.2 |
| 20260507032957 | 15 | 144 | 1.6 | 4.8 | 0.00 | 0.13 | 0.00 | 85 | 1012.2 |
| 20260507031959 | 15 | 144 | 1.6 | 3.2 | 0.00 | 0.13 | 0.00 | 84 | 1012.2 |
| 20260507030957 | 15 | 144 | 0.0 | 4.8 | 0.00 | 0.13 | 0.00 | 82 | 1012.2 |
| 20260507030002 | 15 | 144 | 0.0 | 0.0 | 0.00 | 0.13 | 0.00 | 81 | 1012.2 |
| 20260507024957 | 16 | 144 | 0.0 | 0.0 | 0.00 | 0.13 | 0.00 | 80 | 1012.2 |
| 20260507023959 | 16 | 144 | 0.0 | 0.0 | 0.00 | 0.13 | 0.00 | 79 | 1012.1 |
| 20260507022957 | 16 | 144 | 0.0 | 0.0 | 0.00 | 0.13 | 0.00 | 79 | 1012.0 |
| 20260507021959 | 16 | 144 | 0.0 | 0.0 | 0.00 | 0.13 | 0.00 | 80 | 1012.0 |
| 20260507020957 | 16 | 144 | 0.0 | 0.0 | 0.00 | 0.13 | 0.00 | 80 | 1012.1 |
| 20260507020003 | 16 | 144 | 0.0 | 0.0 | 0.00 | 0.13 | 0.00 | 81 | 1012.1 |
| 20260507014957 | 16 | 144 | 0.0 | 0.0 | 0.00 | 0.13 | 0.00 | 81 | 1012.1 |
| 20260507013959 | 16 | 144 | 0.0 | 0.0 | 0.00 | 0.13 | 0.00 | 81 | 1012.0 |
| 20260507012957 | 16 | 144 | 0.0 | 3.2 | 0.00 | 0.13 | 0.00 | 80 | 1012.1 |
| 20260507011959 | 16 | 144 | 0.0 | 0.0 | 0.00 | 0.13 | 0.00 | 79 | 1012.1 |
| 20260507010002 | 16 | 144 | 0.0 | 3.2 | 0.00 | 0.13 | 0.00 | 78 | 1012.1 |
| 20260507004957 | 16 | 144 | 0.0 | 0.0 | 0.00 | 0.13 | 0.00 | 78 | 1012.1 |
| 20260507003959 | 17 | 144 | 0.0 | 3.2 | 0.00 | 0.13 | 0.00 | 77 | 1012.1 |
| 20260507002957 | 17 | 144 | 0.0 | 3.2 | 0.00 | 0.13 | 0.00 | 76 | 1012.1 |
| 20260507001959 | 17 | 144 | 0.0 | 1.6 | 0.00 | 0.13 | 0.00 | 75 | 1012.2 |
| 20260507000000 | 17 | 144 | 0.0 | 1.6 | 0.00 | 0.13 | 0.00 | 73 | 1012.1 |
| 20260506234959 | 17 | 144 | 0.0 | 1.6 | 0.00 | 0.13 | 0.00 | 72 | 1012.2 |
| 20260506233957 | 17 | 144 | 0.0 | 4.8 | 0.00 | 0.13 | 0.00 | 72 | 1011.9 |
| 20260506233000 | 17 | 144 | 0.0 | 3.2 | 0.00 | 0.13 | 0.00 | 74 | 1012.1 |
| 20260506230959 | 17 | 144 | 4.8 | 11.3 | 0.00 | 0.13 | 0.00 | 74 | 1011.8 |
| 20260506230002 | 17 | 140 | 6.4 | 16.1 | 0.00 | 0.13 | 0.00 | 74 | 1012.0 |
| 20260506224000 | 17 | 133 | 4.8 | 11.3 | 0.00 | 0.15 | 0.00 | 74 | 1011.9 |
| 20260506223003 | 17 | 138 | 3.2 | 8.0 | 0.00 | 0.15 | 0.00 | 74 | 1012.0 |
| 20260506222000 | 17 | 130 | 4.8 | 11.3 | 0.00 | 0.15 | 0.00 | 74 | 1012.1 |
| 20260506221002 | 17 | 132 | 3.2 | 6.4 | 0.00 | 0.15 | 0.00 | 74 | 1012.1 |
| 20260506220006 | 17 | 131 | 1.6 | 6.4 | 0.00 | 0.15 | 0.00 | 75 | 1012.1 |
| 20260506215003 | 17 | 92 | 0.0 | 3.2 | 0.00 | 0.23 | 0.15 | 75 | 1012.2 |
| 20260506214001 | 17 | 92 | 0.0 | 3.2 | 0.00 | 0.23 | 0.15 | 75 | 1012.1 |
| 20260506213003 | 17 | 92 | 0.0 | 3.2 | 0.00 | 0.23 | 0.15 | 75 | 1012.1 |
| 20260506212000 | 17 | 92 | 0.0 | 3.2 | 0.00 | 0.23 | 0.15 | 76 | 1012.1 |
| 20260506210003 | 17 | 92 | 0.0 | 1.6 | 0.00 | 0.23 | 0.15 | 77 | 1012.2 |
| 20260506205002 | 17 | 92 | 0.0 | 3.2 | 0.00 | 0.46 | 0.15 | 77 | 1012.3 |
| 20260506203959 | 17 | 92 | 0.0 | 3.2 | 0.00 | 0.46 | 0.15 | 77 | 1012.2 |
| 20260506203002 | 17 | 92 | 0.0 | 4.8 | 0.00 | 0.46 | 0.15 | 76 | 1012.1 |
| 20260506201002 | 17 | 90 | 0.0 | 0.0 | 0.00 | 0.46 | 0.15 | 76 | 1012.1 |
| 20260506200002 | 17 | 88 | 0.0 | 1.6 | 0.00 | 0.46 | 0.15 | 76 | 1012.1 |
| 20260506193959 | 18 | 88 | 0.0 | 3.2 | 0.00 | 0.56 | 0.15 | 75 | 1011.8 |
| 20260506191958 | 18 | 89 | 0.0 | 3.2 | 0.00 | 0.56 | 0.15 | 74 | 1011.8 |
| 20260506191001 | 18 | 90 | 1.6 | 4.8 | 0.00 | 0.56 | 0.15 | 73 | 1011.5 |
| 20260506190002 | 18 | 91 | 0.0 | 4.8 | 0.00 | 0.56 | 0.15 | 72 | 1011.4 |
| 20260506185001 | 18 | 53 | 0.0 | 3.2 | 0.00 | 1.04 | 0.15 | 70 | 1011.3 |
| 20260506183959 | 19 | 55 | 1.6 | 6.4 | 0.00 | 1.04 | 0.15 | 69 | 1011.2 |
| 20260506183001 | 20 | 134 | 1.6 | 6.4 | 0.00 | 1.04 | 0.15 | 66 | 1010.8 |
| 20260506181959 | 20 | 135 | 3.2 | 12.9 | 0.00 | 1.04 | 0.15 | 66 | 1010.5 |
| 20260506181001 | 20 | 147 | 3.2 | 11.3 | 0.00 | 1.04 | 0.15 | 65 | 1010.4 |
| 20260506175002 | 20 | 144 | 4.8 | 17.7 | 0.00 | 1.27 | 0.15 | 64 | 1010.3 |
| 20260506173959 | 20 | 121 | 3.2 | 11.3 | 0.00 | 1.27 | 0.15 | 63 | 1010.2 |
| 20260506173001 | 21 | 130 | 4.8 | 14.5 | 0.00 | 1.27 | 0.15 | 62 | 1010.1 |
| 20260506171959 | 21 | 126 | 4.8 | 16.1 | 0.00 | 1.27 | 0.15 | 62 | 1010.0 |
| 20260506171001 | 21 | 161 | 6.4 | 16.1 | 0.00 | 1.27 | 0.15 | 61 | 1009.9 |
| 20260506170002 | 21 | 117 | 6.4 | 17.7 | 0.00 | 1.27 | 0.15 | 61 | 1009.9 |
| 20260506163959 | 21 | 139 | 6.4 | 16.1 | 0.00 | 1.27 | 0.15 | 59 | 1009.9 |
| 20260506163001 | 21 | 186 | 6.4 | 20.9 | 0.00 | 1.27 | 0.15 | 59 | 1010.0 |
| 20260506161958 | 22 | 145 | 6.4 | 16.1 | 0.00 | 1.27 | 0.15 | 58 | 1009.9 |
| 20260506161001 | 22 | 141 | 6.4 | 17.7 | 0.00 | 1.27 | 0.15 | 58 | 1009.9 |
| 20260506160002 | 22 | 148 | 8.0 | 19.3 | 0.00 | 1.27 | 0.15 | 58 | 1010.0 |
| 20260506155002 | 22 | 134 | 8.0 | 17.7 | 0.00 | 1.27 | 0.15 | 57 | 1010.0 |
| 20260506153001 | 22 | 144 | 8.0 | 19.3 | 0.00 | 1.27 | 0.15 | 57 | 1009.9 |
| 20260506151959 | 22 | 140 | 6.4 | 16.1 | 0.00 | 1.27 | 0.15 | 59 | 1009.8 |
| 20260506151001 | 22 | 142 | 8.0 | 16.1 | 0.00 | 1.27 | 0.15 | 58 | 1009.9 |
| 20260506150002 | 22 | 119 | 6.4 | 20.9 | 0.00 | 1.27 | 0.15 | 58 | 1009.9 |
| 20260506143959 | 22 | 125 | 4.8 | 17.7 | 0.00 | 1.27 | 0.15 | 59 | 1009.8 |
| 20260506143001 | 22 | 141 | 8.0 | 19.3 | 0.00 | 1.27 | 0.15 | 57 | 1009.8 |
| 20260506141001 | 22 | 147 | 8.0 | 24.1 | 0.00 | 1.27 | 0.15 | 57 | 1009.9 |